Time;durP1;ratioP1;P1;durP2;ratioP2;P2;SDS_P1;SDS_P2;PMS_P1;PMS_P2;Temp;Humidity;BMP_temperature;BMP_pressure;BME280_temperature;BME280_humidity;BME280_pressure;Samples;Min_cycle;Max_cycle;Signal;HPM_P1;HPM_P2
2022/03/31 00:01:44;;;;;;;64.67;32.10;;;;;;;8.17;71.64;93165.19;1552262;91;21454;-48
2022/03/31 00:04:11;;;;;;;49.75;26.33;;;;;;;8.15;72.00;93160.20;1556035;90;21185;-48
2022/03/31 00:06:39;;;;;;;33.92;20.70;;;;;;;8.07;72.69;93157.67;1558374;90;21132;-49
2022/03/31 00:09:08;;;;;;;33.60;19.52;;;;;;;8.00;73.46;93149.83;1552968;90;21533;-49
2022/03/31 00:11:35;;;;;;;28.87;19.40;;;;;;;7.98;74.04;93161.86;1551970;91;21021;-49
2022/03/31 00:14:03;;;;;;;28.85;19.57;;;;;;;7.97;74.95;93154.88;1557435;90;21237;-48
2022/03/31 00:16:31;;;;;;;25.72;18.17;;;;;;;7.91;75.76;93141.67;1552042;90;21661;-48
2022/03/31 00:18:58;;;;;;;28.55;19.37;;;;;;;7.80;75.91;93139.33;1563359;91;21181;-48
2022/03/31 00:21:29;;;;;;;28.27;18.35;;;;;;;7.75;77.02;93135.28;1524940;92;21107;-49
2022/03/31 00:23:56;;;;;;;29.25;17.65;;;;;;;7.69;77.43;93130.30;1555907;91;21017;-48
2022/03/31 00:26:23;;;;;;;29.02;17.98;;;;;;;7.65;77.51;93123.48;1554027;91;21191;-50
2022/03/31 00:28:52;;;;;;;31.90;23.27;;;;;;;7.66;77.68;93120.91;1559458;91;21057;-49
2022/03/31 00:31:20;;;;;;;26.80;19.15;;;;;;;7.66;77.82;93127.13;1524916;92;21146;-48
2022/03/31 00:33:47;;;;;;;24.90;17.15;;;;;;;7.67;77.83;93125.91;1500282;94;21033;-48
2022/03/31 00:36:15;;;;;;;24.85;15.78;;;;;;;7.71;77.82;93126.47;1554071;91;21050;-48
2022/03/31 00:39:28;;;;;;;24.57;15.72;;;;;;;7.75;77.91;93120.23;1557761;90;21241;-50
2022/03/31 00:41:11;;;;;;;22.52;15.85;;;;;;;7.80;77.62;93114.70;1566780;90;21110;-50
2022/03/31 00:43:39;;;;;;;22.10;15.10;;;;;;;7.82;77.67;93106.17;1549702;91;21114;-48
2022/03/31 00:46:06;;;;;;;22.13;15.78;;;;;;;7.83;77.56;93102.81;1561831;91;21086;-48
2022/03/31 00:48:33;;;;;;;24.75;15.90;;;;;;;7.80;77.54;93109.22;1558371;91;21056;-48
2022/03/31 00:51:01;;;;;;;22.93;13.78;;;;;;;7.77;77.45;93106.83;1554374;91;21521;-47
2022/03/31 00:53:28;;;;;;;25.12;14.87;;;;;;;7.76;77.42;93098.48;1561857;91;21093;-50
2022/03/31 00:56:00;;;;;;;21.52;14.68;;;;;;;7.75;77.57;93098.34;1524776;93;21040;-48
2022/03/31 00:58:28;;;;;;;28.52;17.57;;;;;;;7.76;77.63;93093.00;1523308;94;21591;-48
2022/03/31 01:00:56;;;;;;;29.07;18.00;;;;;;;7.79;77.42;93099.50;1510726;93;21062;-48
2022/03/31 01:03:24;;;;;;;29.10;17.25;;;;;;;7.78;77.33;93099.36;1560315;91;21240;-48
2022/03/31 01:05:53;;;;;;;27.58;18.40;;;;;;;7.76;77.28;93092.23;1564828;91;20997;-50
2022/03/31 01:08:21;;;;;;;29.63;16.02;;;;;;;7.72;77.31;93093.77;1565854;91;21040;-49
2022/03/31 01:10:52;;;;;;;22.98;13.68;;;;;;;7.73;77.32;93096.66;1560259;91;21054;-48
2022/03/31 01:13:21;;;;;;;17.02;13.60;;;;;;;7.73;77.37;93095.91;1561770;90;21040;-48
2022/03/31 01:15:49;;;;;;;23.05;14.23;;;;;;;7.74;77.52;93094.05;1525372;92;21286;-49
2022/03/31 01:18:17;;;;;;;22.00;14.95;;;;;;;7.74;77.65;93103.64;1525592;93;21083;-47
2022/03/31 01:20:44;;;;;;;22.30;14.68;;;;;;;7.77;77.56;93104.09;1568713;91;21017;-48
2022/03/31 01:23:14;;;;;;;25.43;15.55;;;;;;;7.75;77.64;93091.49;1569235;90;21191;-48
2022/03/31 01:25:41;;;;;;;24.65;14.25;;;;;;;7.74;77.68;93094.69;1567468;91;21017;-48
2022/03/31 01:28:09;;;;;;;21.70;15.25;;;;;;;7.71;77.77;93084.68;1555033;91;21173;-49
2022/03/31 01:30:38;;;;;;;30.05;17.95;;;;;;;7.70;77.79;93078.44;1555630;91;21109;-49
2022/03/31 01:33:05;;;;;;;47.45;23.77;;;;;;;7.73;77.98;93078.86;1568041;90;21121;-48
2022/03/31 01:35:33;;;;;;;53.10;26.00;;;;;;;7.75;77.77;93064.13;1569275;91;21021;-48
2022/03/31 01:38:01;;;;;;;33.80;21.00;;;;;;;7.75;77.61;93061.39;1567065;91;21189;-48
2022/03/31 01:40:28;;;;;;;31.00;19.75;;;;;;;7.74;77.59;93053.63;1522738;92;22085;-47
2022/03/31 01:42:56;;;;;;;27.45;16.95;;;;;;;7.76;77.61;93049.21;1558377;91;21132;-48
2022/03/31 01:45:23;;;;;;;21.40;15.93;;;;;;;7.82;77.51;93054.77;1546924;91;21034;-48
2022/03/31 01:47:52;;;;;;;22.98;16.27;;;;;;;7.89;77.28;93040.73;1523157;92;21106;-50
2022/03/31 01:50:19;;;;;;;24.35;17.15;;;;;;;7.93;77.02;93046.77;1529922;93;21096;-49
2022/03/31 01:52:48;;;;;;;24.00;15.98;;;;;;;7.94;76.97;93042.20;1523051;93;22081;-48
2022/03/31 01:55:15;;;;;;;18.52;14.30;;;;;;;7.96;76.66;93035.64;1506616;93;21076;-48
2022/03/31 01:57:44;;;;;;;20.70;13.08;;;;;;;7.95;76.70;93036.09;1564090;90;21018;-49
2022/03/31 02:00:13;;;;;;;15.03;12.47;;;;;;;7.93;76.58;93038.55;1553270;91;21066;-49
2022/03/31 02:02:42;;;;;;;19.40;11.57;;;;;;;7.93;76.38;93029.73;1554549;91;21096;-50
2022/03/31 02:05:10;;;;;;;19.27;13.40;;;;;;;7.91;76.35;93026.69;1552787;91;21152;-48
2022/03/31 02:07:38;;;;;;;20.25;13.45;;;;;;;7.90;76.30;93028.55;1548579;91;21549;-48
2022/03/31 02:10:12;;;;;;;22.77;14.35;;;;;;;7.88;76.30;93020.05;1550310;91;21086;-47
2022/03/31 02:12:41;;;;;;;31.05;18.85;;;;;;;7.88;76.22;93024.16;1556120;91;21061;-48
2022/03/31 02:15:11;;;;;;;29.63;18.12;;;;;;;7.85;76.01;93023.73;1557657;91;21542;-50
2022/03/31 02:17:38;;;;;;;29.77;18.85;;;;;;;7.82;75.99;93033.64;1560699;91;21161;-49
2022/03/31 02:20:08;;;;;;;27.15;18.65;;;;;;;7.83;75.99;93033.78;1554918;91;20966;-48
2022/03/31 02:22:37;;;;;;;30.60;18.60;;;;;;;7.79;75.57;93027.73;1550918;91;21034;-48
2022/03/31 02:25:08;;;;;;;33.25;19.52;;;;;;;7.70;75.25;93029.18;1552355;91;21609;-49
2022/03/31 02:27:36;;;;;;;29.80;19.25;;;;;;;7.57;75.30;93024.60;1550970;91;21684;-50
2022/03/31 02:30:07;;;;;;;31.50;19.42;;;;;;;7.48;75.47;93028.03;1552004;91;21222;-50
2022/03/31 02:32:37;;;;;;;26.07;17.82;;;;;;;7.42;75.75;93022.45;1559362;91;21018;-49
2022/03/31 02:35:07;;;;;;;38.02;27.67;;;;;;;7.37;75.75;93027.17;1525258;92;21029;-48
2022/03/31 02:37:34;;;;;;;34.15;20.35;;;;;;;7.31;76.06;93029.05;1559341;92;21200;-50
2022/03/31 02:40:06;;;;;;;32.78;20.72;;;;;;;7.32;76.16;93022.98;1519827;92;21162;-48
2022/03/31 02:42:35;;;;;;;32.80;20.68;;;;;;;7.33;76.13;93032.70;1565472;91;21082;-49
2022/03/31 02:45:05;;;;;;;31.42;20.20;;;;;;;7.37;76.14;93028.55;1553091;91;21112;-49
2022/03/31 02:47:34;;;;;;;41.10;24.87;;;;;;;7.42;76.06;93030.65;1552707;91;21089;-49
2022/03/31 02:50:03;;;;;;;45.43;27.15;;;;;;;7.44;76.02;93028.20;1555024;91;21557;-49
2022/03/31 02:55:24;;;;;;;77.95;43.42;;;;;;;7.43;75.97;93029.42;1558340;92;21049;-48
2022/03/31 02:57:45;;;;;;;56.00;31.73;;;;;;;7.41;76.04;93022.30;1567438;91;20995;-47
2022/03/31 03:00:15;;;;;;;51.08;26.97;;;;;;;7.41;75.70;93020.16;1562714;91;21098;-48
2022/03/31 03:02:43;;;;;;;46.92;26.20;;;;;;;7.41;75.84;93025.63;1560031;91;21593;-48
2022/03/31 03:05:11;;;;;;;54.98;29.55;;;;;;;7.44;75.87;93026.83;1561052;91;21168;-49
2022/03/31 03:07:39;;;;;;;48.58;28.85;;;;;;;7.45;75.74;93026.97;1563200;91;21190;-49
2022/03/31 03:10:08;;;;;;;61.30;31.80;;;;;;;7.44;75.54;93030.94;1568386;91;21532;-50
2022/03/31 03:12:37;;;;;;;92.08;43.48;;;;;;;7.40;75.48;93027.63;1524147;92;21029;-49
2022/03/31 03:15:06;;;;;;;77.03;38.92;;;;;;;7.36;75.55;93034.50;1567693;91;21042;-49
2022/03/31 03:17:35;;;;;;;65.52;32.90;;;;;;;7.32;75.69;93033.30;1552268;91;21022;-49
2022/03/31 03:20:03;;;;;;;56.30;29.92;;;;;;;7.34;75.67;93030.84;1556745;91;21189;-47
2022/03/31 03:22:32;;;;;;;50.85;27.37;;;;;;;7.39;75.71;93037.06;1556624;92;21022;-48
2022/03/31 03:24:59;;;;;;;48.63;28.20;;;;;;;7.40;75.82;93030.36;1550645;91;21144;-48
2022/03/31 03:27:27;;;;;;;48.90;31.17;;;;;;;7.42;75.74;93024.41;1559819;90;21009;-49
2022/03/31 03:29:55;;;;;;;54.15;33.58;;;;;;;7.42;75.98;93023.81;1524241;92;21046;-49
2022/03/31 03:32:22;;;;;;;56.23;29.50;;;;;;;7.45;75.71;93028.94;1523007;93;21206;-51
2022/03/31 03:34:49;;;;;;;55.73;33.20;;;;;;;7.39;75.45;93028.09;1565770;90;21047;-48
2022/03/31 03:37:17;;;;;;;60.38;36.60;;;;;;;7.28;75.49;93024.52;1555516;91;21046;-49
2022/03/31 03:39:45;;;;;;;63.23;37.05;;;;;;;7.21;75.65;93022.75;1522924;92;21311;-49
2022/03/31 03:42:14;;;;;;;58.85;33.90;;;;;;;7.19;75.74;93018.37;1527789;92;21043;-48
2022/03/31 03:44:42;;;;;;;65.85;37.33;;;;;;;7.16;75.82;93018.68;1566298;90;21153;-49
2022/03/31 03:47:09;;;;;;;63.75;37.78;;;;;;;7.13;76.12;93018.25;1525357;92;21114;-49
2022/03/31 03:49:37;;;;;;;57.13;35.58;;;;;;;7.15;76.23;93015.80;1524322;93;21007;-50
2022/03/31 03:52:06;;;;;;;61.53;36.77;;;;;;;7.17;76.02;93020.81;1564025;91;21021;-49
2022/03/31 03:54:33;;;;;;;64.42;34.65;;;;;;;7.14;76.10;93008.82;1565086;91;21497;-48
2022/03/31 03:57:03;;;;;;;67.37;36.33;;;;;;;7.13;75.91;93025.09;1563485;91;21298;-51
2022/03/31 03:59:31;;;;;;;75.12;40.38;;;;;;;7.09;75.86;93017.67;1564402;90;21532;-49
2022/03/31 04:02:02;;;;;;;69.35;40.60;;;;;;;7.09;76.07;93016.31;1558776;91;21090;-49
2022/03/31 04:04:29;;;;;;;88.78;46.90;;;;;;;7.10;76.16;93016.45;1568250;90;21018;-48
2022/03/31 04:06:58;;;;;;;76.42;43.42;;;;;;;7.10;76.16;93019.78;1567893;91;21094;-48
2022/03/31 04:09:26;;;;;;;92.57;48.78;;;;;;;7.06;76.26;93013.75;1570717;91;21201;-49
2022/03/31 04:11:56;;;;;;;81.37;43.63;;;;;;;7.02;76.33;93018.64;1556645;90;21503;-48
2022/03/31 04:14:24;;;;;;;74.72;39.08;;;;;;;7.00;76.39;93018.95;1524125;93;21125;-51
2022/03/31 04:16:55;;;;;;;74.67;40.00;;;;;;;6.97;76.34;93015.78;1555749;92;21141;-49
2022/03/31 04:19:23;;;;;;;66.20;38.45;;;;;;;6.94;76.43;93015.35;1548063;91;21185;-50
2022/03/31 04:21:50;;;;;;;64.37;36.23;;;;;;;6.99;76.65;93022.91;1548645;91;21206;-50
2022/03/31 04:24:17;;;;;;;68.95;37.55;;;;;;;7.04;76.70;93015.45;1550346;91;21049;-49
2022/03/31 04:26:45;;;;;;;86.47;49.18;;;;;;;7.06;76.55;93015.73;1523495;92;21118;-50
2022/03/31 04:29:12;;;;;;;120.97;65.67;;;;;;;7.05;76.70;93008.76;1523434;93;21055;-56
2022/03/31 04:31:42;;;;;;;120.55;70.42;;;;;;;7.08;76.76;93007.83;1522181;93;21228;-50
2022/03/31 04:34:13;;;;;;;121.72;69.05;;;;;;;7.09;76.63;93009.48;1522721;93;21543;-52
2022/03/31 04:36:40;;;;;;;112.80;61.00;;;;;;;7.14;76.76;93023.86;1538091;92;21543;-51
2022/03/31 04:39:08;;;;;;;102.35;59.83;;;;;;;7.17;76.49;93009.25;1516974;93;21064;-51
2022/03/31 04:41:35;;;;;;;170.00;86.63;;;;;;;7.20;76.77;93019.28;1520820;93;21035;-50
2022/03/31 04:44:05;;;;;;;186.10;98.37;;;;;;;7.20;76.48;93004.84;1569751;91;21018;-49
2022/03/31 04:46:35;;;;;;;157.70;89.40;;;;;;;7.18;76.72;93010.02;1571221;90;21798;-50
2022/03/31 04:49:05;;;;;;;142.30;75.78;;;;;;;7.22;76.96;93014.69;1560258;91;21009;-50
2022/03/31 04:51:32;;;;;;;128.85;71.65;;;;;;;7.31;76.76;93018.73;1555614;91;21545;-49
2022/03/31 04:54:00;;;;;;;164.75;86.70;;;;;;;7.35;76.47;93009.73;1526084;92;21548;-52
2022/03/31 04:56:27;;;;;;;146.90;84.62;;;;;;;7.42;76.43;93008.77;1560943;91;21574;-53
2022/03/31 04:58:56;;;;;;;148.22;87.20;;;;;;;7.49;76.37;93017.23;1553698;91;21348;-50
2022/03/31 05:01:25;;;;;;;136.82;74.80;;;;;;;7.54;76.41;93018.67;1524039;93;21058;-52
2022/03/31 05:03:55;;;;;;;130.97;73.42;;;;;;;7.59;76.21;93008.47;1568094;90;21125;-51
2022/03/31 05:06:23;;;;;;;114.32;62.45;;;;;;;7.59;76.02;93009.84;1553362;90;21399;-56
2022/03/31 05:08:52;;;;;;;95.50;54.75;;;;;;;7.59;76.07;93010.44;1525272;92;21055;-55
2022/03/31 05:11:21;;;;;;;111.72;58.55;;;;;;;7.58;75.92;93017.91;1557395;91;21101;-53
2022/03/31 05:13:48;;;;;;;110.95;64.82;;;;;;;7.56;75.94;93013.48;1554311;91;21228;-50
2022/03/31 05:16:17;;;;;;;124.22;72.58;;;;;;;7.60;76.05;93013.31;1515599;94;21028;-51
2022/03/31 05:18:46;;;;;;;126.82;74.60;;;;;;;7.65;76.04;93024.97;1499539;94;21748;-51
2022/03/31 05:21:15;;;;;;;131.27;70.47;;;;;;;7.68;75.96;93017.95;1561383;90;21128;-50
2022/03/31 05:23:42;;;;;;;145.47;86.90;;;;;;;7.71;76.20;93025.22;1517321;93;21256;-52
2022/03/31 05:26:10;;;;;;;112.80;63.33;;;;;;;7.76;76.07;93025.18;1507285;92;21078;-52
2022/03/31 05:28:38;;;;;;;95.05;54.08;;;;;;;7.78;75.95;93027.59;1558323;91;21097;-51
2022/03/31 05:31:08;;;;;;;90.57;53.08;;;;;;;7.83;76.05;93028.30;1562696;91;21283;-52
2022/03/31 05:33:36;;;;;;;83.30;49.10;;;;;;;7.93;76.05;93031.11;1559683;91;21164;-52
2022/03/31 05:36:04;;;;;;;108.17;59.20;;;;;;;8.04;75.96;93016.22;1562903;90;21095;-52
2022/03/31 05:38:32;;;;;;;137.30;76.42;;;;;;;8.14;76.12;93010.80;1566360;90;21090;-52
2022/03/31 05:41:01;;;;;;;128.07;73.80;;;;;;;8.25;75.96;93024.69;1560255;89;21131;-52
2022/03/31 05:43:29;;;;;;;129.10;75.72;;;;;;;8.37;75.70;93038.72;1582229;89;21184;-50
2022/03/31 05:45:58;;;;;;;147.37;83.92;;;;;;;8.43;75.19;93035.45;1556358;90;21180;-50
2022/03/31 05:48:26;;;;;;;135.25;80.20;;;;;;;8.46;74.79;93033.12;1558268;90;21269;-52
2022/03/31 05:50:53;;;;;;;129.65;76.97;;;;;;;8.47;74.48;93025.04;1570184;89;21047;-53
2022/03/31 05:53:22;;;;;;;132.85;78.57;;;;;;;8.54;74.57;93033.48;1580919;89;21047;-52
2022/03/31 05:55:49;;;;;;;112.80;67.30;;;;;;;8.63;74.58;93030.65;1572868;89;21576;-55
2022/03/31 05:58:17;;;;;;;153.78;89.13;;;;;;;8.72;74.23;93031.29;1572146;88;20954;-54
2022/03/31 06:00:45;;;;;;;180.18;102.07;;;;;;;8.75;73.85;93034.45;1561072;89;22873;-56
2022/03/31 06:03:15;;;;;;;176.32;107.63;;;;;;;8.77;73.42;93037.47;1560883;89;21091;-53
2022/03/31 06:05:44;;;;;;;194.45;116.08;;;;;;;8.75;73.31;93035.81;1568799;89;22365;-56
2022/03/31 06:08:12;;;;;;;172.00;102.65;;;;;;;8.81;73.25;93045.50;1563242;89;21515;-60
2022/03/31 06:10:39;;;;;;;162.90;88.52;;;;;;;8.84;73.02;93032.94;1554477;89;21090;-52
2022/03/31 06:13:07;;;;;;;137.75;75.67;;;;;;;8.87;72.94;93038.87;1571085;89;21266;-55
2022/03/31 06:15:35;;;;;;;90.05;54.65;;;;;;;8.92;72.81;93040.30;1554113;90;21090;-58
2022/03/31 06:18:03;;;;;;;126.22;67.35;;;;;;;8.96;72.69;93038.73;1577042;88;21521;-59
2022/03/31 06:20:34;;;;;;;120.62;66.47;;;;;;;9.01;72.83;93029.81;1543094;90;21112;-54
2022/03/31 06:23:02;;;;;;;107.43;59.45;;;;;;;9.15;72.76;93034.50;1560640;89;21065;-55
2022/03/31 06:25:29;;;;;;;110.22;63.05;;;;;;;9.27;72.57;93025.93;1548667;90;21307;-56
2022/03/31 06:27:57;;;;;;;145.55;80.10;;;;;;;9.45;72.41;93018.05;1560409;90;21101;-54
2022/03/31 06:30:24;;;;;;;121.92;69.15;;;;;;;9.60;72.28;93017.36;1572953;89;21037;-54
2022/03/31 06:32:52;;;;;;;123.00;70.67;;;;;;;9.74;71.86;93019.23;1559993;89;21572;-54
2022/03/31 06:35:20;;;;;;;138.77;76.87;;;;;;;9.81;71.54;93021.58;1545295;89;21017;-54
2022/03/31 06:37:49;;;;;;;114.75;66.87;;;;;;;9.88;71.40;93015.65;1567245;89;21108;-55
2022/03/31 06:40:17;;;;;;;120.57;67.00;;;;;;;10.00;71.06;93019.39;1566223;89;21249;-55
2022/03/31 06:42:45;;;;;;;140.10;76.77;;;;;;;10.14;70.43;93020.57;1537441;90;21165;-54
2022/03/31 06:45:15;;;;;;;131.25;70.60;;;;;;;10.28;69.59;93025.17;1556712;89;21121;-55
2022/03/31 06:47:44;;;;;;;152.60;78.52;;;;;;;10.34;69.15;93019.13;1561817;89;22319;-55
2022/03/31 06:50:11;;;;;;;172.78;83.65;;;;;;;10.37;68.90;93025.02;1544808;90;21566;-56
2022/03/31 06:52:39;;;;;;;138.90;68.90;;;;;;;10.44;68.74;93020.44;1551970;89;21140;-54
2022/03/31 06:55:08;;;;;;;82.10;45.08;;;;;;;10.49;68.43;93025.99;1557167;89;21167;-54
2022/03/31 06:57:37;;;;;;;79.72;38.13;;;;;;;10.50;68.06;93021.27;1554388;90;21500;-55
2022/03/31 07:00:06;;;;;;;54.08;29.35;;;;;;;10.55;67.88;93031.54;1551959;89;21154;-55
2022/03/31 07:02:35;;;;;;;45.70;24.10;;;;;;;10.59;67.32;93034.81;1550187;90;21134;-55
2022/03/31 07:05:03;;;;;;;38.33;19.85;;;;;;;10.63;66.80;93034.73;1553894;89;21577;-56
2022/03/31 07:07:30;;;;;;;41.30;22.22;;;;;;;10.66;66.26;93042.00;1549510;90;21106;-56
2022/03/31 07:09:59;;;;;;;39.80;21.80;;;;;;;10.64;65.99;93045.09;1562673;89;21061;-55
2022/03/31 07:12:28;;;;;;;42.58;20.90;;;;;;;10.64;65.82;93046.47;1564362;88;21297;-55
2022/03/31 07:14:56;;;;;;;49.03;27.37;;;;;;;10.66;65.70;93044.75;1564197;89;22771;-54
2022/03/31 07:17:25;;;;;;;48.52;25.25;;;;;;;10.72;65.79;93044.16;1557805;89;21205;-54
2022/03/31 07:19:52;;;;;;;50.63;25.20;;;;;;;10.76;65.50;93043.34;1566614;89;21961;-55
2022/03/31 07:22:20;;;;;;;50.33;25.37;;;;;;;10.84;65.32;93037.52;1537656;90;21775;-56
2022/03/31 07:24:48;;;;;;;64.75;27.70;;;;;;;10.89;65.32;93038.93;1530824;90;21124;-54
2022/03/31 07:27:15;;;;;;;54.27;27.82;;;;;;;11.00;65.34;93034.13;1509477;90;22267;-56
2022/03/31 07:29:43;;;;;;;54.13;26.20;;;;;;;11.18;64.92;93029.60;1534405;90;21176;-57
2022/03/31 07:32:11;;;;;;;53.73;26.52;;;;;;;11.31;64.36;93028.55;1527940;90;21159;-55
2022/03/31 07:34:38;;;;;;;71.85;25.92;;;;;;;11.43;63.88;93023.98;1547112;90;21490;-56
2022/03/31 07:37:06;;;;;;;52.03;23.22;;;;;;;11.54;63.37;93028.78;1532102;90;21315;-56
2022/03/31 07:39:36;;;;;;;36.50;20.43;;;;;;;11.63;62.72;93032.72;1535859;90;21116;-55
2022/03/31 07:42:04;;;;;;;36.73;19.80;;;;;;;11.71;62.44;93028.99;1524093;91;22281;-55
2022/03/31 07:44:32;;;;;;;39.73;19.80;;;;;;;11.86;62.09;93025.42;1543170;90;21202;-55
2022/03/31 07:47:00;;;;;;;43.78;21.00;;;;;;;12.02;61.85;93017.83;1539467;90;21042;-56
2022/03/31 07:49:27;;;;;;;34.60;18.12;;;;;;;12.16;60.78;93023.75;1532245;90;21109;-56
2022/03/31 07:51:56;;;;;;;55.10;22.37;;;;;;;12.24;60.35;93019.23;1489344;93;22640;-52
2022/03/31 07:54:24;;;;;;;51.28;25.75;;;;;;;12.33;60.35;93019.02;1505721;93;21260;-57
2022/03/31 07:56:52;;;;;;;56.45;26.30;;;;;;;12.45;60.28;93015.00;1495231;93;21138;-53
2022/03/31 07:59:23;;;;;;;53.38;22.00;;;;;;;12.62;59.78;93007.48;1534023;90;21148;-53
2022/03/31 08:01:50;;;;;;;51.02;21.55;;;;;;;12.81;58.87;93002.96;1539066;90;22502;-54
2022/03/31 08:04:18;;;;;;;84.47;22.65;;;;;;;13.01;57.96;92997.95;1533364;90;21267;-55
2022/03/31 08:06:46;;;;;;;47.03;18.82;;;;;;;13.22;57.30;93000.55;1533362;90;21030;-60
2022/03/31 08:09:17;;;;;;;48.63;21.55;;;;;;;13.45;56.05;92997.84;1534286;90;21096;-54
2022/03/31 08:11:45;;;;;;;33.42;13.13;;;;;;;13.72;54.24;93003.14;1515128;92;22354;-54
2022/03/31 08:14:12;;;;;;;30.95;13.03;;;;;;;13.98;49.75;92989.71;1515888;91;21556;-55
2022/03/31 08:16:39;;;;;;;33.85;14.80;;;;;;;14.18;48.24;92982.45;1518135;91;21242;-55
2022/03/31 08:19:07;;;;;;;46.08;20.30;;;;;;;14.38;47.89;92982.07;1525856;91;21068;-56
2022/03/31 08:21:35;;;;;;;36.60;14.05;;;;;;;14.58;46.73;92967.95;1522796;91;21560;-58
2022/03/31 08:24:04;;;;;;;33.23;13.38;;;;;;;14.76;45.39;92977.61;1529427;90;21148;-56
2022/03/31 08:26:32;;;;;;;27.32;12.28;;;;;;;14.89;44.83;92967.44;1543718;91;21098;-54
2022/03/31 08:29:01;;;;;;;24.90;10.72;;;;;;;15.04;44.72;92980.89;1521608;92;21149;-54
2022/03/31 08:31:29;;;;;;;29.50;12.63;;;;;;;15.17;44.18;92990.06;1546211;90;21224;-56
2022/03/31 08:33:58;;;;;;;27.50;10.70;;;;;;;15.26;43.67;92978.66;1532031;90;21568;-54
2022/03/31 08:36:26;;;;;;;24.60;10.75;;;;;;;15.26;43.29;92980.05;1534335;91;21231;-56
2022/03/31 08:38:53;;;;;;;25.37;9.73;;;;;;;15.24;43.11;92981.20;1516172;91;21150;-56
2022/03/31 08:41:23;;;;;;;31.93;11.68;;;;;;;15.30;42.97;92984.69;1539218;90;21242;-55
2022/03/31 08:43:50;;;;;;;41.42;14.05;;;;;;;15.34;42.86;92970.55;1533584;91;21106;-52
2022/03/31 08:46:18;;;;;;;28.70;12.53;;;;;;;15.41;43.17;92977.66;1534802;91;21132;-56
2022/03/31 08:48:45;;;;;;;32.98;13.48;;;;;;;15.51;43.14;92978.78;1533141;91;21142;-55
2022/03/31 08:51:13;;;;;;;42.88;15.80;;;;;;;15.60;42.11;92973.52;1524912;91;21992;-55
2022/03/31 08:53:40;;;;;;;30.27;12.73;;;;;;;15.67;41.86;92973.69;1521979;92;21138;-55
2022/03/31 08:56:10;;;;;;;25.12;10.70;;;;;;;15.72;41.93;92965.94;1528657;91;21101;-54
2022/03/31 08:58:39;;;;;;;23.80;9.28;;;;;;;15.73;41.32;92974.36;1536820;91;21104;-53
2022/03/31 09:01:08;;;;;;;29.10;11.10;;;;;;;15.73;41.34;92972.23;1527317;90;21030;-56
2022/03/31 09:03:36;;;;;;;51.45;14.83;;;;;;;15.73;41.59;92974.36;1545745;89;21101;-54
2022/03/31 09:06:07;;;;;;;29.52;10.58;;;;;;;15.77;41.67;92972.03;1530637;91;22191;-54
2022/03/31 09:08:36;;;;;;;18.73;9.48;;;;;;;15.89;41.14;92966.47;1526880;91;21069;-51
2022/03/31 09:11:05;;;;;;;25.70;10.13;;;;;;;15.87;40.79;92961.36;1541385;91;21116;-55
2022/03/31 09:13:40;;;;;;;42.80;11.05;;;;;;;15.82;40.62;92971.86;1516862;92;21084;-55
2022/03/31 09:16:10;;;;;;;29.75;9.78;;;;;;;15.74;40.89;92955.72;1541798;91;21064;-55
2022/03/31 09:18:39;;;;;;;32.25;9.70;;;;;;;15.72;40.74;92959.66;1532003;90;21685;-55
2022/03/31 09:21:10;;;;;;;31.65;10.40;;;;;;;15.64;40.81;92955.33;1523087;92;21596;-55
2022/03/31 09:23:44;;;;;;;22.32;9.08;;;;;;;15.66;41.32;92951.40;1535993;91;21521;-55
2022/03/31 09:26:14;;;;;;;26.80;9.98;;;;;;;15.80;41.01;92942.52;1515871;91;21146;-55
2022/03/31 09:28:46;;;;;;;25.30;10.50;;;;;;;15.93;40.78;92953.05;1505648;91;21524;-54
2022/03/31 09:31:13;;;;;;;33.85;10.10;;;;;;;15.95;40.57;92952.55;1533781;91;21219;-56
2022/03/31 09:33:45;;;;;;;19.42;9.15;;;;;;;15.93;40.74;92953.05;1529989;91;21116;-54
2022/03/31 09:36:18;;;;;;;24.52;8.53;;;;;;;15.93;40.43;92939.84;1530445;92;21068;-53
2022/03/31 09:39:02;;;;;;;23.67;9.03;;;;;;;15.87;40.36;92948.88;1539023;91;21574;-53
2022/03/31 09:41:36;;;;;;;21.23;8.43;;;;;;;15.89;40.31;92937.36;1539449;90;21122;-51
2022/03/31 09:44:08;;;;;;;26.27;9.25;;;;;;;15.99;41.11;92948.20;1536279;91;26454;-53
2022/03/31 09:46:38;;;;;;;28.38;8.93;;;;;;;16.08;40.27;92935.33;1528451;91;21040;-53
2022/03/31 09:49:26;;;;;;;25.12;9.95;;;;;;;16.17;39.97;92944.67;1536243;91;21152;-54
2022/03/31 09:51:57;;;;;;;31.15;9.43;;;;;;;16.17;39.90;92936.34;1548487;90;21606;-53
2022/03/31 09:54:26;;;;;;;31.10;10.65;;;;;;;16.14;39.61;92940.18;1530020;92;21044;-53
2022/03/31 09:56:54;;;;;;;31.37;11.20;;;;;;;16.06;39.55;92942.70;1513826;92;21349;-56
2022/03/31 09:59:21;;;;;;;33.95;11.97;;;;;;;15.94;39.74;92944.84;1514708;92;21083;-55
2022/03/31 10:01:51;;;;;;;20.92;9.63;;;;;;;15.86;39.74;92938.41;1524744;90;21183;-55
2022/03/31 10:04:18;;;;;;;35.40;13.08;;;;;;;15.85;40.20;92936.91;1522770;92;21243;-53
2022/03/31 10:06:46;;;;;;;27.77;10.80;;;;;;;15.84;40.23;92942.97;1502960;91;21198;-53
2022/03/31 10:09:14;;;;;;;35.80;11.22;;;;;;;15.84;40.24;92943.73;1552358;90;21212;-54
2022/03/31 10:11:47;;;;;;;25.40;9.45;;;;;;;15.84;40.03;92949.28;1542230;89;21155;-55
2022/03/31 10:14:48;;;;;;;26.27;9.28;;;;;;;15.74;39.91;92939.81;1526555;91;21579;-53
2022/03/31 10:17:16;;;;;;;30.35;9.90;;;;;;;15.63;40.08;92947.52;1545680;90;21084;-56
2022/03/31 10:19:45;;;;;;;26.85;9.58;;;;;;;15.53;40.17;92936.70;1538828;89;21100;-53
2022/03/31 10:25:12;;;;;;;26.82;10.32;;;;;;;15.46;40.50;92928.95;1540254;91;21125;-53
2022/03/31 10:27:40;;;;;;;37.53;11.28;;;;;;;15.42;40.64;92930.66;1535594;91;21185;-55
2022/03/31 10:30:16;;;;;;;30.43;9.40;;;;;;;15.44;40.77;92932.27;1531579;91;21138;-54
2022/03/31 10:32:57;;;;;;;32.48;10.78;;;;;;;15.43;40.61;92920.30;1532194;91;21227;-54
2022/03/31 10:35:40;;;;;;;33.70;10.90;;;;;;;15.44;40.44;92919.80;1541039;90;21854;-58
2022/03/31 10:38:13;;;;;;;;;;;;;;;15.51;40.81;92919.20;1546400;91;21156;-55
2022/03/31 10:40:49;;;;;;;24.90;9.50;;;;;;;15.64;40.75;92919.30;1524597;91;20278;-55
2022/03/31 10:43:31;;;;;;;24.37;10.98;;;;;;;15.75;40.28;92913.59;1544840;91;21045;-50
2022/03/31 10:46:01;;;;;;;24.72;10.23;;;;;;;15.88;40.66;92913.67;1531370;91;21075;-52
2022/03/31 10:48:29;;;;;;;31.97;10.60;;;;;;;15.98;39.66;92914.05;1538858;90;21978;-55
2022/03/31 10:51:14;;;;;;;25.15;10.00;;;;;;;15.99;39.54;92918.31;1542139;91;21165;-55
2022/03/31 10:53:48;;;;;;;31.37;11.57;;;;;;;16.03;39.81;92907.04;1525970;92;21096;-54
2022/03/31 10:56:24;;;;;;;25.02;10.65;;;;;;;16.09;39.33;92911.86;1532517;91;21543;-54
2022/03/31 10:58:52;;;;;;;26.65;9.50;;;;;;;16.07;39.11;92915.80;1520711;90;21288;-54
2022/03/31 11:01:21;;;;;;;31.55;10.00;;;;;;;16.05;38.86;92914.20;1534218;91;21332;-54
2022/03/31 11:03:52;;;;;;;31.68;9.95;;;;;;;16.00;38.77;92907.33;1542026;90;21010;-54
2022/03/31 11:06:20;;;;;;;28.50;10.80;;;;;;;15.97;38.89;92903.60;1538861;90;22374;-53
2022/03/31 11:08:49;;;;;;;29.07;10.10;;;;;;;15.94;38.92;92897.70;1546904;90;21157;-55
2022/03/31 11:11:30;;;;;;;19.85;9.80;;;;;;;15.92;38.73;92900.91;1546367;90;21109;-54
2022/03/31 11:13:59;;;;;;;27.37;10.67;;;;;;;15.91;39.16;92892.47;1539792;92;21143;-55
2022/03/31 11:16:37;;;;;;;22.65;9.60;;;;;;;15.95;39.39;92890.14;1533367;91;21102;-55
2022/03/31 11:19:07;;;;;;;25.82;9.75;;;;;;;16.00;38.87;92885.91;1535932;92;21091;-54
2022/03/31 11:21:37;;;;;;;24.23;9.53;;;;;;;16.03;39.03;92872.36;1537698;91;21033;-56
2022/03/31 11:24:07;;;;;;;27.73;10.40;;;;;;;16.08;39.03;92874.95;1538504;90;21073;-56
2022/03/31 11:26:45;;;;;;;32.38;10.63;;;;;;;16.15;38.74;92875.09;1523884;91;21209;-55
2022/03/31 11:29:14;;;;;;;26.42;9.33;;;;;;;16.19;38.60;92873.38;1536626;90;21925;-56
2022/03/31 11:31:48;;;;;;;29.15;9.85;;;;;;;16.20;38.33;92877.65;1532967;91;21244;-54
2022/03/31 11:34:18;;;;;;;;;;;;;;;16.14;38.52;92869.44;1532185;91;21118;-56
2022/03/31 11:36:46;;;;;;;24.07;10.15;;;;;;;16.09;38.44;92867.47;1532021;91;20446;-54